sensor_id;sensor_type;location;lat;lon;timestamp;pressure;altitude;pressure_sealevel;temperature;humidity
41312;BME280;27061;41.648;24.568;2022-11-23T00:01:22;84768.06;;;8.93;78.29
41312;BME280;27061;41.648;24.568;2022-11-23T00:03:52;84769.44;;;8.94;78.35
41312;BME280;27061;41.648;24.568;2022-11-23T00:06:21;84775.78;;;8.88;78.84
41312;BME280;27061;41.648;24.568;2022-11-23T00:08:48;84741.94;;;8.61;78.91
41312;BME280;27061;41.648;24.568;2022-11-23T00:11:17;84748.53;;;8.74;79.08
41312;BME280;27061;41.648;24.568;2022-11-23T00:13:45;84741.22;;;8.62;78.78
41312;BME280;27061;41.648;24.568;2022-11-23T00:16:22;84766.03;;;8.91;78.50
41312;BME280;27061;41.648;24.568;2022-11-23T00:18:55;84681.31;;;8.28;79.29
41312;BME280;27061;41.648;24.568;2022-11-23T00:21:27;84760.50;;;8.91;78.93
41312;BME280;27061;41.648;24.568;2022-11-23T00:23:54;84729.94;;;8.72;77.90
41312;BME280;27061;41.648;24.568;2022-11-23T00:26:21;84754.69;;;8.76;77.20
41312;BME280;27061;41.648;24.568;2022-11-23T00:28:48;84740.53;;;8.62;77.80
41312;BME280;27061;41.648;24.568;2022-11-23T00:31:17;84754.72;;;8.74;77.77
41312;BME280;27061;41.648;24.568;2022-11-23T00:33:53;84765.75;;;8.74;77.55
41312;BME280;27061;41.648;24.568;2022-11-23T00:36:21;84762.31;;;8.74;77.54
41312;BME280;27061;41.648;24.568;2022-11-23T00:38:49;84660.44;;;8.08;75.90
41312;BME280;27061;41.648;24.568;2022-11-23T00:41:18;84761.69;;;8.71;77.11
41312;BME280;27061;41.648;24.568;2022-11-23T00:43:46;84726.50;;;8.43;77.63
41312;BME280;27061;41.648;24.568;2022-11-23T00:46:15;84739.38;;;8.53;77.56
41312;BME280;27061;41.648;24.568;2022-11-23T00:48:44;84748.25;;;8.57;77.40
41312;BME280;27061;41.648;24.568;2022-11-23T00:51:14;84768.59;;;8.70;77.41
41312;BME280;27061;41.648;24.568;2022-11-23T00:53:42;84782.06;;;8.85;78.08
41312;BME280;27061;41.648;24.568;2022-11-23T00:56:10;84756.44;;;8.59;78.46
41312;BME280;27061;41.648;24.568;2022-11-23T00:58:37;84801.31;;;8.89;77.41
41312;BME280;27061;41.648;24.568;2022-11-23T01:01:10;84732.38;;;8.58;78.41
41312;BME280;27061;41.648;24.568;2022-11-23T01:03:41;84743.94;;;8.64;78.50
41312;BME280;27061;41.648;24.568;2022-11-23T01:06:10;84787.59;;;8.85;78.89
41312;BME280;27061;41.648;24.568;2022-11-23T01:08:38;84779.41;;;8.80;79.21
41312;BME280;27061;41.648;24.568;2022-11-23T01:11:08;84797.50;;;9.02;79.04
41312;BME280;27061;41.648;24.568;2022-11-23T01:13:37;84739.72;;;8.67;78.76
41312;BME280;27061;41.648;24.568;2022-11-23T01:16:16;84793.13;;;9.11;79.10
41312;BME280;27061;41.648;24.568;2022-11-23T01:18:56;84772.63;;;9.04;79.28
41312;BME280;27061;41.648;24.568;2022-11-23T01:21:24;84762.25;;;9.05;79.84
41312;BME280;27061;41.648;24.568;2022-11-23T01:23:53;84763.78;;;9.00;77.00
41312;BME280;27061;41.648;24.568;2022-11-23T01:26:20;84731.50;;;8.65;79.83
41312;BME280;27061;41.648;24.568;2022-11-23T01:28:48;84754.53;;;8.82;77.69
41312;BME280;27061;41.648;24.568;2022-11-23T01:31:18;84767.06;;;9.06;77.28
41312;BME280;27061;41.648;24.568;2022-11-23T01:33:45;84758.97;;;8.98;78.05
41312;BME280;27061;41.648;24.568;2022-11-23T01:36:18;84764.06;;;9.14;76.71
41312;BME280;27061;41.648;24.568;2022-11-23T01:38:46;84762.16;;;9.09;75.58
41312;BME280;27061;41.648;24.568;2022-11-23T01:41:16;84755.22;;;9.10;74.21
41312;BME280;27061;41.648;24.568;2022-11-23T01:43:45;84710.31;;;8.85;73.12
41312;BME280;27061;41.648;24.568;2022-11-23T01:46:12;84712.03;;;8.71;73.25
41312;BME280;27061;41.648;24.568;2022-11-23T01:49:05;84740.59;;;8.89;73.87
41312;BME280;27061;41.648;24.568;2022-11-23T01:51:38;84693.56;;;8.66;74.96
41312;BME280;27061;41.648;24.568;2022-11-23T01:54:09;84718.38;;;8.93;74.62
41312;BME280;27061;41.648;24.568;2022-11-23T01:56:43;84722.63;;;8.90;74.81
41312;BME280;27061;41.648;24.568;2022-11-23T01:59:16;84690.09;;;8.65;75.70
41312;BME280;27061;41.648;24.568;2022-11-23T02:01:44;84715.75;;;8.89;76.54
41312;BME280;27061;41.648;24.568;2022-11-23T02:04:16;84713.03;;;8.87;76.74
41312;BME280;27061;41.648;24.568;2022-11-23T02:06:45;84706.25;;;8.81;76.76
41312;BME280;27061;41.648;24.568;2022-11-23T02:09:14;84684.28;;;8.77;76.78
41312;BME280;27061;41.648;24.568;2022-11-23T02:11:42;84666.91;;;8.56;77.28
41312;BME280;27061;41.648;24.568;2022-11-23T02:14:12;84708.88;;;8.88;77.14
41312;BME280;27061;41.648;24.568;2022-11-23T02:16:44;84682.22;;;8.78;76.36
41312;BME280;27061;41.648;24.568;2022-11-23T02:19:30;84709.38;;;8.94;75.50
41312;BME280;27061;41.648;24.568;2022-11-23T02:22:04;84708.03;;;8.93;77.98
41312;BME280;27061;41.648;24.568;2022-11-23T02:24:38;84680.06;;;8.80;78.13
41312;BME280;27061;41.648;24.568;2022-11-23T02:27:09;84667.78;;;8.75;74.56
41312;BME280;27061;41.648;24.568;2022-11-23T02:29:36;84689.66;;;8.84;76.01
41312;BME280;27061;41.648;24.568;2022-11-23T02:32:03;84675.34;;;8.77;76.08
41312;BME280;27061;41.648;24.568;2022-11-23T02:34:30;84682.56;;;8.91;77.24
41312;BME280;27061;41.648;24.568;2022-11-23T02:36:58;84671.34;;;8.70;76.48
41312;BME280;27061;41.648;24.568;2022-11-23T02:39:37;84694.84;;;8.96;76.65
41312;BME280;27061;41.648;24.568;2022-11-23T02:42:05;84673.09;;;8.84;77.04
41312;BME280;27061;41.648;24.568;2022-11-23T02:44:43;84690.53;;;9.03;77.21
41312;BME280;27061;41.648;24.568;2022-11-23T02:47:13;84681.94;;;8.61;80.93
41312;BME280;27061;41.648;24.568;2022-11-23T02:49:41;84680.31;;;8.70;79.71
41312;BME280;27061;41.648;24.568;2022-11-23T02:52:08;84682.69;;;8.87;78.58
41312;BME280;27061;41.648;24.568;2022-11-23T02:54:35;84619.09;;;8.37;80.04
41312;BME280;27061;41.648;24.568;2022-11-23T02:57:02;84688.25;;;8.85;79.02
41312;BME280;27061;41.648;24.568;2022-11-23T02:59:30;84701.88;;;8.91;78.45
41312;BME280;27061;41.648;24.568;2022-11-23T03:02:01;84690.78;;;8.93;78.67
41312;BME280;27061;41.648;24.568;2022-11-23T03:04:30;84664.00;;;8.89;78.09
41312;BME280;27061;41.648;24.568;2022-11-23T03:06:57;84679.91;;;8.87;74.10
41312;BME280;27061;41.648;24.568;2022-11-23T03:09:25;84678.47;;;8.90;75.65
41312;BME280;27061;41.648;24.568;2022-11-23T03:11:52;84669.03;;;8.80;75.73
41312;BME280;27061;41.648;24.568;2022-11-23T03:14:20;84669.13;;;8.76;75.48
41312;BME280;27061;41.648;24.568;2022-11-23T03:16:52;84655.59;;;8.66;75.39
41312;BME280;27061;41.648;24.568;2022-11-23T03:19:19;84634.50;;;8.55;75.37
41312;BME280;27061;41.648;24.568;2022-11-23T03:21:49;84654.00;;;8.75;75.88
41312;BME280;27061;41.648;24.568;2022-11-23T03:24:16;84666.69;;;8.91;76.20
41312;BME280;27061;41.648;24.568;2022-11-23T03:26:44;84645.81;;;8.71;77.39
41312;BME280;27061;41.648;24.568;2022-11-23T03:29:17;84666.34;;;8.78;77.71
41312;BME280;27061;41.648;24.568;2022-11-23T03:31:43;84654.13;;;8.69;77.72
41312;BME280;27061;41.648;24.568;2022-11-23T03:34:13;84682.72;;;8.85;77.20
41312;BME280;27061;41.648;24.568;2022-11-23T03:36:42;84695.06;;;8.88;76.37
41312;BME280;27061;41.648;24.568;2022-11-23T03:39:08;84636.91;;;8.42;76.94
41312;BME280;27061;41.648;24.568;2022-11-23T03:41:55;84678.69;;;8.79;76.81
41312;BME280;27061;41.648;24.568;2022-11-23T03:44:28;84678.97;;;8.69;75.48
41312;BME280;27061;41.648;24.568;2022-11-23T03:46:55;84662.47;;;8.67;73.88
41312;BME280;27061;41.648;24.568;2022-11-23T03:49:23;84585.50;;;8.01;76.27
41312;BME280;27061;41.648;24.568;2022-11-23T03:51:51;84649.72;;;8.54;76.30
41312;BME280;27061;41.648;24.568;2022-11-23T03:54:18;84654.13;;;8.69;75.17
41312;BME280;27061;41.648;24.568;2022-11-23T03:56:45;84640.72;;;8.55;74.72
41312;BME280;27061;41.648;24.568;2022-11-23T03:59:12;84623.63;;;8.49;75.39
41312;BME280;27061;41.648;24.568;2022-11-23T04:01:38;84668.00;;;8.67;74.16
41312;BME280;27061;41.648;24.568;2022-11-23T04:04:11;84661.25;;;8.60;74.50
41312;BME280;27061;41.648;24.568;2022-11-23T04:07:03;84654.63;;;8.49;75.63
41312;BME280;27061;41.648;24.568;2022-11-23T04:09:34;84649.25;;;8.45;76.41
41312;BME280;27061;41.648;24.568;2022-11-23T04:12:04;84629.50;;;8.34;75.11
41312;BME280;27061;41.648;24.568;2022-11-23T04:14:34;84633.72;;;8.29;75.46
41312;BME280;27061;41.648;24.568;2022-11-23T04:17:00;84651.84;;;8.51;74.86
41312;BME280;27061;41.648;24.568;2022-11-23T04:19:28;84615.16;;;8.28;74.59
41312;BME280;27061;41.648;24.568;2022-11-23T04:21:57;84622.75;;;8.27;73.86
41312;BME280;27061;41.648;24.568;2022-11-23T04:24:26;84648.50;;;8.47;75.32
41312;BME280;27061;41.648;24.568;2022-11-23T04:26:56;84644.34;;;8.48;75.83
41312;BME280;27061;41.648;24.568;2022-11-23T04:29:24;84669.06;;;8.52;73.85
41312;BME280;27061;41.648;24.568;2022-11-23T04:31:52;84639.22;;;8.31;73.89
41312;BME280;27061;41.648;24.568;2022-11-23T04:34:20;84657.34;;;8.51;73.57
41312;BME280;27061;41.648;24.568;2022-11-23T04:36:50;84663.72;;;8.46;73.78
41312;BME280;27061;41.648;24.568;2022-11-23T04:39:20;84661.72;;;8.42;73.90
41312;BME280;27061;41.648;24.568;2022-11-23T04:42:14;84623.59;;;8.22;75.06
41312;BME280;27061;41.648;24.568;2022-11-23T04:44:47;84667.19;;;8.44;74.02
41312;BME280;27061;41.648;24.568;2022-11-23T04:47:15;84669.16;;;8.48;74.16
41312;BME280;27061;41.648;24.568;2022-11-23T04:49:44;84662.66;;;8.32;75.16
41312;BME280;27061;41.648;24.568;2022-11-23T04:52:11;84633.69;;;8.02;75.14
41312;BME280;27061;41.648;24.568;2022-11-23T04:54:44;84622.69;;;8.02;75.53
41312;BME280;27061;41.648;24.568;2022-11-23T04:57:11;84623.91;;;8.07;75.26
41312;BME280;27061;41.648;24.568;2022-11-23T04:59:38;84636.06;;;8.19;75.65
41312;BME280;27061;41.648;24.568;2022-11-23T05:02:06;84619.69;;;7.84;75.77
41312;BME280;27061;41.648;24.568;2022-11-23T05:04:35;84656.47;;;8.30;76.06
41312;BME280;27061;41.648;24.568;2022-11-23T05:07:03;84641.38;;;8.27;76.15
41312;BME280;27061;41.648;24.568;2022-11-23T05:09:32;84643.69;;;8.16;75.13
41312;BME280;27061;41.648;24.568;2022-11-23T05:12:10;84639.66;;;8.13;74.83
41312;BME280;27061;41.648;24.568;2022-11-23T05:14:38;84592.03;;;7.57;74.72
41312;BME280;27061;41.648;24.568;2022-11-23T05:17:07;84656.72;;;8.20;74.80
41312;BME280;27061;41.648;24.568;2022-11-23T05:19:34;84625.94;;;7.80;74.91
41312;BME280;27061;41.648;24.568;2022-11-23T05:22:01;84662.28;;;8.18;74.52
41312;BME280;27061;41.648;24.568;2022-11-23T05:24:30;84647.38;;;8.06;74.82
41312;BME280;27061;41.648;24.568;2022-11-23T05:27:06;84651.91;;;8.18;73.91
41312;BME280;27061;41.648;24.568;2022-11-23T05:29:33;84624.84;;;7.98;74.96
41312;BME280;27061;41.648;24.568;2022-11-23T05:32:03;84625.50;;;7.98;74.30
41312;BME280;27061;41.648;24.568;2022-11-23T05:34:31;84620.63;;;8.01;75.13
41312;BME280;27061;41.648;24.568;2022-11-23T05:36:59;84607.06;;;7.93;74.88
41312;BME280;27061;41.648;24.568;2022-11-23T05:39:26;84613.13;;;7.97;75.31
41312;BME280;27061;41.648;24.568;2022-11-23T05:41:53;84649.59;;;8.29;75.41
41312;BME280;27061;41.648;24.568;2022-11-23T05:44:39;84618.59;;;7.99;74.82
41312;BME280;27061;41.648;24.568;2022-11-23T05:47:11;84640.03;;;8.26;75.28
41312;BME280;27061;41.648;24.568;2022-11-23T05:49:38;84634.53;;;8.26;74.88
41312;BME280;27061;41.648;24.568;2022-11-23T05:52:05;84618.41;;;8.07;75.59
41312;BME280;27061;41.648;24.568;2022-11-23T05:54:35;84641.97;;;8.31;73.66
41312;BME280;27061;41.648;24.568;2022-11-23T05:57:08;84637.31;;;8.24;74.86
41312;BME280;27061;41.648;24.568;2022-11-23T05:59:38;84636.34;;;8.06;74.54
41312;BME280;27061;41.648;24.568;2022-11-23T06:02:07;84643.88;;;8.08;74.07
41312;BME280;27061;41.648;24.568;2022-11-23T06:04:35;84668.13;;;8.34;73.00
41312;BME280;27061;41.648;24.568;2022-11-23T06:07:04;84648.47;;;8.18;72.32
41312;BME280;27061;41.648;24.568;2022-11-23T06:09:49;84653.72;;;8.30;73.17
41312;BME280;27061;41.648;24.568;2022-11-23T06:12:16;84638.28;;;8.12;73.62
41312;BME280;27061;41.648;24.568;2022-11-23T06:14:43;84665.47;;;8.28;73.45
41312;BME280;27061;41.648;24.568;2022-11-23T06:17:13;84674.91;;;8.37;72.60
41312;BME280;27061;41.648;24.568;2022-11-23T06:19:46;84685.13;;;8.43;73.23
41312;BME280;27061;41.648;24.568;2022-11-23T06:22:13;84687.72;;;8.49;72.55
41312;BME280;27061;41.648;24.568;2022-11-23T06:24:59;84694.59;;;8.50;73.29
41312;BME280;27061;41.648;24.568;2022-11-23T06:27:38;84660.41;;;8.39;71.81
41312;BME280;27061;41.648;24.568;2022-11-23T06:30:19;84670.50;;;8.49;71.59
41312;BME280;27061;41.648;24.568;2022-11-23T06:32:47;84683.38;;;8.58;71.88
41312;BME280;27061;41.648;24.568;2022-11-23T06:35:14;84642.94;;;8.20;72.90
41312;BME280;27061;41.648;24.568;2022-11-23T06:37:43;84642.00;;;8.29;73.42
41312;BME280;27061;41.648;24.568;2022-11-23T06:40:11;84682.03;;;8.57;71.62
41312;BME280;27061;41.648;24.568;2022-11-23T06:42:39;84667.03;;;8.50;71.14
41312;BME280;27061;41.648;24.568;2022-11-23T06:45:18;84647.47;;;8.33;71.34
41312;BME280;27061;41.648;24.568;2022-11-23T06:47:47;84631.84;;;8.22;71.57
41312;BME280;27061;41.648;24.568;2022-11-23T06:50:14;84687.34;;;8.65;72.52
41312;BME280;27061;41.648;24.568;2022-11-23T06:52:44;84652.81;;;8.39;71.94
41312;BME280;27061;41.648;24.568;2022-11-23T06:55:10;84683.88;;;8.67;71.90
41312;BME280;27061;41.648;24.568;2022-11-23T06:57:38;84619.94;;;8.31;71.46
41312;BME280;27061;41.648;24.568;2022-11-23T07:00:07;84683.44;;;8.83;69.75
41312;BME280;27061;41.648;24.568;2022-11-23T07:02:36;84666.72;;;8.62;69.60
41312;BME280;27061;41.648;24.568;2022-11-23T07:05:03;84688.44;;;8.76;70.83
41312;BME280;27061;41.648;24.568;2022-11-23T07:07:31;84666.94;;;8.54;71.23
41312;BME280;27061;41.648;24.568;2022-11-23T07:10:06;84677.25;;;8.82;69.90
41312;BME280;27061;41.648;24.568;2022-11-23T07:12:53;84675.25;;;8.52;70.56
41312;BME280;27061;41.648;24.568;2022-11-23T07:15:21;84662.97;;;8.47;70.10
41312;BME280;27061;41.648;24.568;2022-11-23T07:17:50;84693.97;;;8.76;68.88
41312;BME280;27061;41.648;24.568;2022-11-23T07:20:19;84678.91;;;8.71;68.60
41312;BME280;27061;41.648;24.568;2022-11-23T07:22:46;84684.44;;;8.71;67.21
41312;BME280;27061;41.648;24.568;2022-11-23T07:25:13;84710.94;;;8.87;66.77
41312;BME280;27061;41.648;24.568;2022-11-23T07:27:44;84710.94;;;8.87;67.83
41312;BME280;27061;41.648;24.568;2022-11-23T07:30:12;84712.44;;;8.82;68.55
41312;BME280;27061;41.648;24.568;2022-11-23T07:32:39;84691.00;;;8.85;68.81
41312;BME280;27061;41.648;24.568;2022-11-23T07:35:07;84703.88;;;8.94;68.16
41312;BME280;27061;41.648;24.568;2022-11-23T07:37:36;84721.31;;;8.87;70.74
41312;BME280;27061;41.648;24.568;2022-11-23T07:40:04;84723.81;;;8.97;71.33
41312;BME280;27061;41.648;24.568;2022-11-23T07:42:33;84696.34;;;8.91;70.80
41312;BME280;27061;41.648;24.568;2022-11-23T07:45:08;84709.66;;;9.11;68.05
41312;BME280;27061;41.648;24.568;2022-11-23T07:47:38;84701.69;;;8.99;67.62
41312;BME280;27061;41.648;24.568;2022-11-23T07:50:06;84694.63;;;9.04;66.55
41312;BME280;27061;41.648;24.568;2022-11-23T07:52:35;84695.94;;;9.07;66.15
41312;BME280;27061;41.648;24.568;2022-11-23T07:55:02;84712.19;;;9.19;65.43
41312;BME280;27061;41.648;24.568;2022-11-23T07:57:30;84664.66;;;8.90;64.25
41312;BME280;27061;41.648;24.568;2022-11-23T07:59:57;84704.13;;;9.11;65.69
41312;BME280;27061;41.648;24.568;2022-11-23T08:02:24;84714.50;;;9.10;64.59
41312;BME280;27061;41.648;24.568;2022-11-23T08:04:51;84713.97;;;9.04;63.54
41312;BME280;27061;41.648;24.568;2022-11-23T08:07:17;84729.41;;;9.22;62.01
41312;BME280;27061;41.648;24.568;2022-11-23T08:09:44;84700.53;;;8.90;63.38
41312;BME280;27061;41.648;24.568;2022-11-23T08:12:12;84733.41;;;9.00;63.28
41312;BME280;27061;41.648;24.568;2022-11-23T08:14:39;84704.84;;;8.82;61.83
41312;BME280;27061;41.648;24.568;2022-11-23T08:17:06;84710.69;;;8.97;63.90
41312;BME280;27061;41.648;24.568;2022-11-23T08:19:34;84734.13;;;8.98;65.00
41312;BME280;27061;41.648;24.568;2022-11-23T08:22:01;84725.16;;;8.98;62.46
41312;BME280;27061;41.648;24.568;2022-11-23T08:24:28;84706.28;;;8.79;63.91
41312;BME280;27061;41.648;24.568;2022-11-23T08:26:55;84733.28;;;9.04;64.46
41312;BME280;27061;41.648;24.568;2022-11-23T08:29:23;84717.00;;;8.94;68.16
41312;BME280;27061;41.648;24.568;2022-11-23T08:31:50;84736.09;;;9.02;66.18
41312;BME280;27061;41.648;24.568;2022-11-23T08:34:17;84707.56;;;8.85;64.90
41312;BME280;27061;41.648;24.568;2022-11-23T08:36:44;84720.88;;;9.03;62.45
41312;BME280;27061;41.648;24.568;2022-11-23T08:39:11;84731.22;;;9.04;63.02
41312;BME280;27061;41.648;24.568;2022-11-23T08:41:40;84745.34;;;9.19;65.05
41312;BME280;27061;41.648;24.568;2022-11-23T08:44:08;84722.41;;;8.98;63.23
41312;BME280;27061;41.648;24.568;2022-11-23T08:46:37;84749.44;;;9.20;63.59
41312;BME280;27061;41.648;24.568;2022-11-23T08:49:05;84749.66;;;9.12;63.06
41312;BME280;27061;41.648;24.568;2022-11-23T08:51:33;84745.16;;;9.25;61.54
41312;BME280;27061;41.648;24.568;2022-11-23T08:54:00;84709.59;;;9.13;61.14
41312;BME280;27061;41.648;24.568;2022-11-23T08:56:27;84736.06;;;9.31;62.61
41312;BME280;27061;41.648;24.568;2022-11-23T08:58:54;84744.81;;;9.39;62.17
41312;BME280;27061;41.648;24.568;2022-11-23T09:01:21;84711.66;;;9.12;62.00
41312;BME280;27061;41.648;24.568;2022-11-23T09:03:48;84739.91;;;9.42;66.21
41312;BME280;27061;41.648;24.568;2022-11-23T09:06:15;84717.22;;;9.37;67.83
41312;BME280;27061;41.648;24.568;2022-11-23T09:08:42;84742.81;;;9.63;62.14
41312;BME280;27061;41.648;24.568;2022-11-23T09:11:11;84732.94;;;9.70;63.13
41312;BME280;27061;41.648;24.568;2022-11-23T09:13:39;84743.75;;;9.78;62.60
41312;BME280;27061;41.648;24.568;2022-11-23T09:16:06;84727.75;;;9.82;61.99
41312;BME280;27061;41.648;24.568;2022-11-23T09:18:34;84730.72;;;9.99;63.17
41312;BME280;27061;41.648;24.568;2022-11-23T09:21:03;84714.66;;;9.81;62.54
41312;BME280;27061;41.648;24.568;2022-11-23T09:23:31;84718.97;;;9.99;62.08
41312;BME280;27061;41.648;24.568;2022-11-23T09:26:02;84710.88;;;9.93;60.51
41312;BME280;27061;41.648;24.568;2022-11-23T09:28:31;84685.47;;;9.86;61.32
41312;BME280;27061;41.648;24.568;2022-11-23T09:31:01;84723.72;;;10.02;56.61
41312;BME280;27061;41.648;24.568;2022-11-23T09:33:28;84684.34;;;9.77;56.94
41312;BME280;27061;41.648;24.568;2022-11-23T09:36:00;84684.78;;;9.63;58.05
41312;BME280;27061;41.648;24.568;2022-11-23T09:38:28;84665.34;;;9.65;60.38
41312;BME280;27061;41.648;24.568;2022-11-23T09:44:23;84704.84;;;10.09;59.18
41312;BME280;27061;41.648;24.568;2022-11-23T09:47:24;84695.41;;;10.02;60.14
41312;BME280;27061;41.648;24.568;2022-11-23T09:50:11;84689.81;;;10.04;56.55
41312;BME280;27061;41.648;24.568;2022-11-23T09:52:44;84676.22;;;9.96;57.41
41312;BME280;27061;41.648;24.568;2022-11-23T09:55:40;84693.41;;;9.98;61.37
41312;BME280;27061;41.648;24.568;2022-11-23T09:58:13;84660.72;;;9.82;60.23
41312;BME280;27061;41.648;24.568;2022-11-23T10:03:23;84677.69;;;9.93;59.43
41312;BME280;27061;41.648;24.568;2022-11-23T10:23:16;84685.41;;;9.88;60.35
41312;BME280;27061;41.648;24.568;2022-11-23T10:25:49;84694.91;;;9.95;60.94
41312;BME280;27061;41.648;24.568;2022-11-23T10:28:19;84682.50;;;9.94;60.11
41312;BME280;27061;41.648;24.568;2022-11-23T10:30:52;84683.84;;;9.95;59.34
41312;BME280;27061;41.648;24.568;2022-11-23T10:33:42;84682.41;;;9.96;60.96
41312;BME280;27061;41.648;24.568;2022-11-23T10:36:12;84657.91;;;9.84;61.10
41312;BME280;27061;41.648;24.568;2022-11-23T10:38:40;84664.47;;;9.72;63.44
41312;BME280;27061;41.648;24.568;2022-11-23T10:41:13;84653.56;;;9.91;62.26
41312;BME280;27061;41.648;24.568;2022-11-23T10:43:48;84620.38;;;9.68;63.04
41312;BME280;27061;41.648;24.568;2022-11-23T10:46:24;84663.53;;;10.05;61.21
41312;BME280;27061;41.648;24.568;2022-11-23T10:48:51;84680.47;;;10.15;60.96
41312;BME280;27061;41.648;24.568;2022-11-23T10:54:22;84670.03;;;10.18;60.04
41312;BME280;27061;41.648;24.568;2022-11-23T10:56:51;84644.34;;;9.99;59.02
41312;BME280;27061;41.648;24.568;2022-11-23T11:02:14;84663.72;;;10.21;63.11
41312;BME280;27061;41.648;24.568;2022-11-23T11:04:42;84670.34;;;10.31;64.64
41312;BME280;27061;41.648;24.568;2022-11-23T11:07:26;84624.00;;;10.08;65.58
41312;BME280;27061;41.648;24.568;2022-11-23T11:09:59;84653.06;;;10.30;63.28
41312;BME280;27061;41.648;24.568;2022-11-23T11:12:28;84659.59;;;10.43;59.35
41312;BME280;27061;41.648;24.568;2022-11-23T11:17:36;84645.97;;;10.37;59.04
41312;BME280;27061;41.648;24.568;2022-11-23T11:22:50;84651.59;;;10.33;60.24
41312;BME280;27061;41.648;24.568;2022-11-23T11:25:30;84656.88;;;10.41;57.79
41312;BME280;27061;41.648;24.568;2022-11-23T11:27:59;84632.06;;;10.16;61.78
41312;BME280;27061;41.648;24.568;2022-11-23T11:30:38;84599.72;;;9.88;60.45
41312;BME280;27061;41.648;24.568;2022-11-23T11:33:14;84659.47;;;10.47;59.97
41312;BME280;27061;41.648;24.568;2022-11-23T11:35:47;84591.31;;;9.92;57.31
41312;BME280;27061;41.648;24.568;2022-11-23T11:38:25;84676.59;;;10.52;58.84
41312;BME280;27061;41.648;24.568;2022-11-23T11:40:57;84642.75;;;10.28;58.52
41312;BME280;27061;41.648;24.568;2022-11-23T11:43:45;84670.91;;;10.58;57.37
41312;BME280;27061;41.648;24.568;2022-11-23T11:46:20;84664.31;;;10.47;55.93
41312;BME280;27061;41.648;24.568;2022-11-23T11:49:20;84686.94;;;10.53;58.55
41312;BME280;27061;41.648;24.568;2022-11-23T11:52:04;84678.41;;;10.39;59.60
41312;BME280;27061;41.648;24.568;2022-11-23T11:54:39;84640.41;;;10.14;60.67
41312;BME280;27061;41.648;24.568;2022-11-23T11:57:21;84686.38;;;10.49;58.66
41312;BME280;27061;41.648;24.568;2022-11-23T11:59:54;84658.19;;;10.21;57.47
41312;BME280;27061;41.648;24.568;2022-11-23T12:02:29;84627.22;;;9.94;58.46
41312;BME280;27061;41.648;24.568;2022-11-23T12:07:41;84679.38;;;10.29;57.95
41312;BME280;27061;41.648;24.568;2022-11-23T12:10:17;84672.06;;;10.19;58.65
41312;BME280;27061;41.648;24.568;2022-11-23T12:12:45;84699.25;;;10.36;60.70
41312;BME280;27061;41.648;24.568;2022-11-23T12:15:19;84707.41;;;10.40;58.83
41312;BME280;27061;41.648;24.568;2022-11-23T12:20:54;84665.81;;;9.96;55.54
41312;BME280;27061;41.648;24.568;2022-11-23T12:31:56;84671.13;;;9.57;57.62
41312;BME280;27061;41.648;24.568;2022-11-23T12:40:02;84712.41;;;10.10;56.73
41312;BME280;27061;41.648;24.568;2022-11-23T12:42:41;84705.38;;;10.15;56.43
41312;BME280;27061;41.648;24.568;2022-11-23T12:45:38;84670.25;;;9.87;56.07
41312;BME280;27061;41.648;24.568;2022-11-23T12:50:59;84706.47;;;10.02;57.06
41312;BME280;27061;41.648;24.568;2022-11-23T12:59:16;84694.13;;;9.74;60.31
41312;BME280;27061;41.648;24.568;2022-11-23T13:01:55;84724.47;;;9.76;60.01
41312;BME280;27061;41.648;24.568;2022-11-23T13:04:53;84727.16;;;9.78;59.56
41312;BME280;27061;41.648;24.568;2022-11-23T13:10:29;84720.28;;;9.77;60.99
41312;BME280;27061;41.648;24.568;2022-11-23T13:19:20;84742.50;;;9.48;65.06
41312;BME280;27061;41.648;24.568;2022-11-23T13:21:50;84737.81;;;9.42;64.85
41312;BME280;27061;41.648;24.568;2022-11-23T13:40:34;84749.16;;;9.32;68.56
41312;BME280;27061;41.648;24.568;2022-11-23T13:45:41;84758.16;;;9.31;69.58
41312;BME280;27061;41.648;24.568;2022-11-23T13:53:31;84761.25;;;9.43;70.47
41312;BME280;27061;41.648;24.568;2022-11-23T13:58:51;84752.06;;;9.26;70.78
41312;BME280;27061;41.648;24.568;2022-11-23T14:04:44;84766.41;;;9.58;68.63
41312;BME280;27061;41.648;24.568;2022-11-23T14:07:24;84729.75;;;9.34;66.66
41312;BME280;27061;41.648;24.568;2022-11-23T14:10:20;84747.28;;;9.49;66.74
41312;BME280;27061;41.648;24.568;2022-11-23T14:12:53;84763.56;;;9.62;65.68
41312;BME280;27061;41.648;24.568;2022-11-23T14:15:33;84712.03;;;9.25;65.21
41312;BME280;27061;41.648;24.568;2022-11-23T14:32:00;84783.09;;;9.53;66.13
41312;BME280;27061;41.648;24.568;2022-11-23T14:42:56;84790.59;;;9.57;66.39
41312;BME280;27061;41.648;24.568;2022-11-23T14:45:27;84802.59;;;9.47;67.01
41312;BME280;27061;41.648;24.568;2022-11-23T14:47:55;84790.19;;;9.46;67.18
41312;BME280;27061;41.648;24.568;2022-11-23T14:50:27;84732.09;;;9.24;65.21
41312;BME280;27061;41.648;24.568;2022-11-23T14:52:56;84751.63;;;9.42;64.90
41312;BME280;27061;41.648;24.568;2022-11-23T14:55:28;84772.38;;;9.41;65.33
41312;BME280;27061;41.648;24.568;2022-11-23T14:57:59;84788.16;;;9.45;66.00
41312;BME280;27061;41.648;24.568;2022-11-23T15:00:35;84740.47;;;8.93;66.47
41312;BME280;27061;41.648;24.568;2022-11-23T15:03:17;84799.41;;;9.37;66.41
41312;BME280;27061;41.648;24.568;2022-11-23T15:06:12;84793.34;;;9.32;66.01
41312;BME280;27061;41.648;24.568;2022-11-23T15:11:35;84800.88;;;9.34;65.69
41312;BME280;27061;41.648;24.568;2022-11-23T15:14:16;84799.63;;;9.29;65.26
41312;BME280;27061;41.648;24.568;2022-11-23T15:16:43;84781.69;;;9.28;65.01
41312;BME280;27061;41.648;24.568;2022-11-23T15:19:27;84751.97;;;9.01;65.07
41312;BME280;27061;41.648;24.568;2022-11-23T15:21:55;84767.69;;;9.09;64.74
41312;BME280;27061;41.648;24.568;2022-11-23T15:24:25;84765.94;;;8.95;65.45
41312;BME280;27061;41.648;24.568;2022-11-23T15:27:02;84787.16;;;9.03;65.76
41312;BME280;27061;41.648;24.568;2022-11-23T15:29:37;84785.16;;;8.70;67.02